Weather at Idaho Falls Regional Airport

Public forecast

Using degrees Fahrenheit for public forecast. Weather courtesy of forecast.io.

Current aviation weather report (METAR) for Idaho Falls Regional Airport

2023/03/27 10:22 (retrieved 34 minutes ago)

KIDA 271022Z AUTO 00000KT 10SM BKN013 OVC043 M06/M09 A3015 RMK AO2 T10611089

Aviation forecast (TAF) for Idaho Falls Regional Airport

2023/03/27 06:22 (retrieved 5 hours ago)

TAF KIDA 270520Z 2706/2806 21008KT 6SM -SN BR BKN025 OVC040 FM270800 25006KT 6SM -SN BR BKN015 OVC020 FM271800 25006KT P6SM SCT015 BKN035 FM280000 21006KT P6SM BKN050